createdAt,value
2022-08-04T00:00:33.000Z,10.57
2022-08-04T00:03:20.030Z,16.40
2022-08-04T00:06:23.163Z,28.40
2022-08-04T00:08:58.293Z,21.53
2022-08-04T00:11:30.749Z,14.30
2022-08-04T00:14:07.993Z,31.00
2022-08-04T00:16:39.087Z,12.87
2022-08-04T00:19:30.253Z,11.83
2022-08-04T00:22:10.548Z,15.83
2022-08-04T00:24:38.757Z,11.40
2022-08-04T00:27:07.947Z,11.60
2022-08-04T00:29:35.870Z,10.37
2022-08-04T00:32:03.843Z,11.10
2022-08-04T00:34:32.203Z,10.07
2022-08-04T00:36:59.323Z,21.50
2022-08-04T00:39:27.002Z,18.90
2022-08-04T00:42:15.506Z,15.53
2022-08-04T00:46:09.509Z,10.83
2022-08-04T00:48:57.335Z,15.63
2022-08-04T00:52:31.450Z,14.83
2022-08-04T00:55:29.370Z,19.27
2022-08-04T00:58:42.865Z,28.53
2022-08-04T01:01:42.171Z,14.07
2022-08-04T01:04:35.001Z,12.53
2022-08-04T01:07:42.514Z,16.33
2022-08-04T01:10:50.160Z,25.80
2022-08-04T01:13:59.508Z,19.50
2022-08-04T01:16:27.685Z,21.20
2022-08-04T01:19:08.361Z,25.03
2022-08-04T01:22:12.108Z,16.53
2022-08-04T01:25:04.538Z,19.73
2022-08-04T01:28:34.380Z,18.67
2022-08-04T01:31:26.445Z,26.33
2022-08-04T01:34:04.296Z,14.13
2022-08-04T01:36:35.871Z,14.07
2022-08-04T01:39:24.038Z,14.13
2022-08-04T01:41:57.921Z,13.30
2022-08-04T01:44:29.734Z,28.47
2022-08-04T01:46:56.792Z,20.83
2022-08-04T01:49:39.965Z,19.00
2022-08-04T01:52:10.987Z,18.80
2022-08-04T01:54:41.777Z,24.00
2022-08-04T01:57:38.122Z,32.67
2022-08-04T02:00:01.027Z,17.23
2022-08-04T02:02:28.195Z,12.13
2022-08-04T02:04:56.310Z,21.73
2022-08-04T02:07:53.295Z,14.63
2022-08-04T02:10:42.607Z,15.93
2022-08-04T02:13:33.595Z,15.47
2022-08-04T02:16:11.445Z,15.27
2022-08-04T02:19:20.673Z,18.53
2022-08-04T02:21:58.061Z,14.70
2022-08-04T02:24:28.472Z,12.60
2022-08-04T02:26:57.200Z,14.70
2022-08-04T02:29:35.780Z,17.03
2022-08-04T02:32:07.484Z,16.10
2022-08-04T02:35:01.458Z,13.73
2022-08-04T02:37:32.409Z,14.80
2022-08-04T02:40:02.388Z,19.63
2022-08-04T02:42:30.442Z,21.20
2022-08-04T02:45:01.532Z,13.40
2022-08-04T02:48:08.199Z,16.27
2022-08-04T02:50:25.389Z,14.93
2022-08-04T02:52:58.927Z,17.40
2022-08-04T02:55:29.278Z,23.23
2022-08-04T02:57:59.411Z,23.07
2022-08-04T03:00:26.789Z,13.40
2022-08-04T03:03:15.293Z,24.00
2022-08-04T03:06:10.900Z,12.60
2022-08-04T03:09:35.078Z,14.87
2022-08-04T03:12:16.390Z,16.00
2022-08-04T03:15:13.876Z,19.03
2022-08-04T03:18:28.268Z,13.00
2022-08-04T03:21:34.675Z,15.50
2022-08-04T03:24:54.569Z,21.13
2022-08-04T03:28:17.019Z,13.33
2022-08-04T03:30:57.635Z,19.77
2022-08-04T03:33:46.554Z,34.53
2022-08-04T03:37:08.941Z,20.13
2022-08-04T03:40:19.889Z,23.80
2022-08-04T03:43:58.977Z,10.50
2022-08-04T03:46:47.327Z,18.23
2022-08-04T03:49:40.121Z,20.23
2022-08-04T03:53:13.811Z,27.17
2022-08-04T03:55:55.929Z,16.13
2022-08-04T03:59:07.712Z,16.73
2022-08-04T04:02:06.747Z,22.80
2022-08-04T04:04:51.846Z,11.77
2022-08-04T04:08:03.926Z,12.50
2022-08-04T04:11:56.685Z,14.10
2022-08-04T04:14:50.059Z,23.77
2022-08-04T04:18:08.736Z,22.53
2022-08-04T04:21:22.065Z,14.13
2022-08-04T04:24:01.747Z,14.13
2022-08-04T04:26:56.798Z,16.00
2022-08-04T04:29:58.172Z,15.27
2022-08-04T04:32:45.886Z,19.77
2022-08-04T04:35:39.103Z,17.90
2022-08-04T04:38:43.859Z,19.60
2022-08-04T04:41:46.052Z,22.67
2022-08-04T04:44:42.915Z,20.20
2022-08-04T04:48:08.244Z,25.80
2022-08-04T04:51:12.323Z,13.20
2022-08-04T04:54:19.038Z,12.70
2022-08-04T04:56:51.715Z,11.23
2022-08-04T04:59:23.191Z,36.77
2022-08-04T05:02:36.640Z,18.53
2022-08-04T05:05:53.746Z,18.43
2022-08-04T05:08:53.833Z,17.37
2022-08-04T05:14:30.835Z,13.13
2022-08-04T05:15:00.174Z,17.47
2022-08-04T05:17:35.740Z,11.90
2022-08-04T05:20:13.891Z,21.87
2022-08-04T05:22:52.729Z,19.13
2022-08-04T05:25:23.188Z,12.67
2022-08-04T05:28:15.913Z,31.67
2022-08-04T05:30:51.411Z,24.57
2022-08-04T05:33:41.125Z,18.07
2022-08-04T05:36:39.492Z,13.47
2022-08-04T05:39:13.303Z,24.13
2022-08-04T05:41:45.276Z,18.13
2022-08-04T05:44:15.594Z,11.43
2022-08-04T05:46:53.935Z,17.47
2022-08-04T05:49:23.949Z,13.93
2022-08-04T05:51:52.351Z,13.43
2022-08-04T05:54:22.208Z,12.57
2022-08-04T05:56:50.046Z,11.80
2022-08-04T05:59:19.872Z,9.17
2022-08-04T06:01:55.635Z,16.57
2022-08-04T06:04:39.885Z,12.07
2022-08-04T06:07:07.995Z,15.00
2022-08-04T06:09:35.197Z,8.90
2022-08-04T06:12:10.256Z,8.67
2022-08-04T06:14:42.502Z,8.10
2022-08-04T06:17:18.436Z,8.87
2022-08-04T06:20:18.962Z,15.10
2022-08-04T06:22:59.080Z,9.80
2022-08-04T06:25:31.651Z,7.63
2022-08-04T06:28:00.165Z,11.43
2022-08-04T06:30:28.571Z,10.63
2022-08-04T06:33:03.622Z,10.17
2022-08-04T06:35:33.322Z,8.50
2022-08-04T06:38:01.863Z,11.47
2022-08-04T06:40:33.485Z,7.90
2022-08-04T06:43:06.950Z,6.20
2022-08-04T06:45:37.363Z,6.30
2022-08-04T06:48:06.679Z,8.77
2022-08-04T06:51:31.859Z,6.47
2022-08-04T06:53:25.868Z,7.67
2022-08-04T06:55:53.421Z,12.67
2022-08-04T06:58:22.025Z,7.30
2022-08-04T07:00:50.892Z,6.57
2022-08-04T07:03:19.206Z,5.63
2022-08-04T07:05:51.461Z,5.80
2022-08-04T07:08:19.313Z,8.87
2022-08-04T07:10:46.656Z,6.10
2022-08-04T07:13:14.436Z,9.77
2022-08-04T07:15:45.163Z,9.03
2022-08-04T07:18:12.167Z,10.70
2022-08-04T07:20:47.135Z,15.77
2022-08-04T07:23:19.802Z,5.30
2022-08-04T07:26:00.210Z,5.33
2022-08-04T07:28:40.663Z,6.90
2022-08-04T07:31:33.874Z,7.10
2022-08-04T07:34:20.800Z,6.20
2022-08-04T07:36:59.368Z,7.47
2022-08-04T07:39:31.335Z,9.33
2022-08-04T07:42:02.317Z,4.60
2022-08-04T07:44:31.940Z,6.50
2022-08-04T07:47:00.472Z,26.10
2022-08-04T07:49:54.895Z,4.57
2022-08-04T07:52:15.652Z,4.93
2022-08-04T07:54:43.620Z,4.70
2022-08-04T07:57:20.726Z,3.70
2022-08-04T07:59:57.533Z,9.20
2022-08-04T08:02:24.919Z,5.93
2022-08-04T08:04:52.922Z,3.17
2022-08-04T08:07:20.808Z,3.47
2022-08-04T08:09:48.123Z,2.97
2022-08-04T08:12:38.044Z,3.40
2022-08-04T08:15:03.797Z,4.70
2022-08-04T08:17:30.709Z,2.50
2022-08-04T08:19:57.683Z,5.18
2022-08-04T08:22:25.028Z,5.15
2022-08-04T08:24:52.421Z,2.97
2022-08-04T08:27:19.641Z,2.53
2022-08-04T08:29:47.849Z,13.45
2022-08-04T08:32:16.041Z,4.80
2022-08-04T08:34:45.552Z,5.55
2022-08-04T08:37:30.309Z,2.90
2022-08-04T08:40:41.166Z,2.17
2022-08-04T08:44:05.868Z,2.70
2022-08-04T08:46:49.649Z,2.20
2022-08-04T08:50:15.713Z,4.35
2022-08-04T08:53:40.112Z,2.60
2022-08-04T08:56:32.134Z,5.70
2022-08-04T08:59:54.166Z,2.30
2022-08-04T09:03:04.838Z,2.63
2022-08-04T09:05:38.363Z,2.38
2022-08-04T09:08:37.344Z,2.60
2022-08-04T09:11:14.551Z,4.63
2022-08-04T09:13:56.531Z,5.93
2022-08-04T09:16:42.875Z,2.25
2022-08-04T09:19:38.228Z,4.72
2022-08-04T09:22:20.897Z,3.33
2022-08-04T09:25:21.055Z,19.08
2022-08-04T09:28:05.705Z,4.88
2022-08-04T09:30:51.339Z,4.20
2022-08-04T09:33:44.446Z,4.28
2022-08-04T09:36:36.220Z,3.92
2022-08-04T09:39:28.094Z,9.57
2022-08-04T09:42:36.002Z,3.63
2022-08-04T09:45:26.083Z,3.22
2022-08-04T09:48:10.841Z,2.45
2022-08-04T09:50:50.030Z,5.18
2022-08-04T09:53:54.427Z,3.35
2022-08-04T09:56:43.099Z,1.92
2022-08-04T09:59:19.326Z,5.60
2022-08-04T10:01:59.786Z,2.10
2022-08-04T10:04:31.414Z,2.45
2022-08-04T10:07:27.142Z,1.70
2022-08-04T10:10:20.227Z,2.13
2022-08-04T10:12:55.782Z,2.33
2022-08-04T10:15:53.331Z,2.53
2022-08-04T10:19:12.017Z,4.35
2022-08-04T10:22:30.566Z,10.88
2022-08-04T10:25:37.700Z,2.50
2022-08-04T10:28:21.907Z,3.03
2022-08-04T10:30:59.315Z,2.25
2022-08-04T10:33:38.438Z,3.78
2022-08-04T10:36:10.568Z,2.55
2022-08-04T10:38:57.991Z,4.65
2022-08-04T10:41:56.523Z,1.92
2022-08-04T10:45:12.215Z,4.40
2022-08-04T10:47:53.302Z,2.13
2022-08-04T10:50:24.337Z,2.40
2022-08-04T10:53:14.005Z,2.28
2022-08-04T10:56:06.138Z,1.50
2022-08-04T10:58:47.836Z,2.00
2022-08-04T11:02:00.679Z,2.10
2022-08-04T11:04:48.979Z,3.25
2022-08-04T11:07:17.862Z,2.53
2022-08-04T11:09:45.954Z,2.85
2022-08-04T11:12:25.924Z,2.95
2022-08-04T11:15:09.496Z,4.80
2022-08-04T11:17:41.989Z,2.22
2022-08-04T11:20:37.103Z,3.78
2022-08-04T11:23:11.306Z,5.47
2022-08-04T11:25:58.298Z,3.08
2022-08-04T11:29:27.041Z,4.03
2022-08-04T11:31:59.233Z,2.10
2022-08-04T11:34:28.476Z,1.70
2022-08-04T11:37:22.557Z,5.13
2022-08-04T11:39:57.652Z,2.13
2022-08-04T11:42:48.269Z,6.72
2022-08-04T11:45:29.094Z,1.98
2022-08-04T11:48:03.288Z,5.97
2022-08-04T11:50:51.701Z,4.72
2022-08-04T11:53:26.252Z,1.98
2022-08-04T11:56:07.563Z,1.65
2022-08-04T11:58:37.658Z,3.70
2022-08-04T12:01:48.637Z,2.25
2022-08-04T12:04:47.615Z,3.72
2022-08-04T12:07:41.034Z,4.57
2022-08-04T12:10:45.869Z,1.60
2022-08-04T12:13:28.032Z,2.60
2022-08-04T12:16:17.142Z,2.33
2022-08-04T12:18:57.573Z,1.95
2022-08-04T12:21:34.559Z,7.07
2022-08-04T12:24:19.005Z,7.40
2022-08-04T12:26:54.181Z,1.70
2022-08-04T12:29:23.865Z,2.40
2022-08-04T12:32:24.264Z,4.25
2022-08-04T12:35:21.976Z,1.90
2022-08-04T12:38:10.916Z,14.32
2022-08-04T12:40:55.482Z,2.10
2022-08-04T12:43:44.683Z,4.15
2022-08-04T12:46:20.740Z,1.73
2022-08-04T12:48:49.547Z,1.50
2022-08-04T12:52:05.731Z,2.90
2022-08-04T12:54:08.353Z,2.53
2022-08-04T12:56:36.722Z,8.65
2022-08-04T12:59:12.765Z,1.40
2022-08-04T13:02:08.770Z,1.88
2022-08-04T13:04:36.453Z,7.13
2022-08-04T13:07:14.400Z,4.25
2022-08-04T13:09:42.995Z,2.85
2022-08-04T13:12:23.876Z,15.75
2022-08-04T13:15:10.090Z,1.42
2022-08-04T13:17:59.930Z,1.88
2022-08-04T13:20:38.970Z,1.38
2022-08-04T13:23:11.856Z,1.27
2022-08-04T13:26:42.631Z,1.88
2022-08-04T13:28:43.637Z,2.85
2022-08-04T13:31:19.884Z,5.55
2022-08-04T13:34:02.882Z,4.18
2022-08-04T13:36:30.957Z,1.75
2022-08-04T13:39:08.692Z,1.85
2022-08-04T13:41:41.062Z,11.35
2022-08-04T13:44:18.949Z,1.65
2022-08-04T13:46:52.531Z,1.20
2022-08-04T13:49:37.490Z,1.30
2022-08-04T13:52:10.722Z,1.30
2022-08-04T13:54:45.442Z,3.15
2022-08-04T13:57:23.713Z,1.80
2022-08-04T14:00:08.277Z,2.35
2022-08-04T14:02:45.531Z,4.25
2022-08-04T14:05:32.411Z,3.90
2022-08-04T14:08:17.334Z,1.98
2022-08-04T14:10:55.251Z,1.95
2022-08-04T14:13:41.137Z,3.45
2022-08-04T14:16:21.293Z,3.38
2022-08-04T14:18:58.149Z,3.72
2022-08-04T14:21:25.078Z,1.70
2022-08-04T14:23:55.239Z,1.98
2022-08-04T14:26:32.531Z,1.83
2022-08-04T14:29:26.316Z,7.55
2022-08-04T14:32:03.136Z,1.63
2022-08-04T14:34:31.356Z,1.65
2022-08-04T14:37:16.517Z,2.17
2022-08-04T14:40:17.680Z,3.85
2022-08-04T14:42:54.409Z,1.92
2022-08-04T14:45:39.465Z,4.47
2022-08-04T14:48:22.618Z,2.65
2022-08-04T14:50:50.862Z,1.75
2022-08-04T14:53:29.490Z,2.55
2022-08-04T14:56:00.057Z,7.40
2022-08-04T14:58:39.424Z,1.95
2022-08-04T15:01:12.940Z,3.45
2022-08-04T15:03:50.653Z,2.05
2022-08-04T15:06:28.791Z,11.27
2022-08-04T15:09:00.118Z,2.50
2022-08-04T15:11:28.002Z,5.97
2022-08-04T15:13:57.459Z,2.50
2022-08-04T15:16:27.724Z,1.90
2022-08-04T15:18:56.963Z,2.20
2022-08-04T15:21:28.971Z,4.18
2022-08-04T15:23:59.425Z,5.57
2022-08-04T15:26:34.395Z,3.30
2022-08-04T15:29:16.888Z,4.03
2022-08-04T15:32:08.542Z,12.48
2022-08-04T15:34:47.122Z,1.80
2022-08-04T15:37:25.847Z,1.88
2022-08-04T15:40:13.595Z,10.35
2022-08-04T15:43:00.524Z,6.03
2022-08-04T15:46:02.951Z,2.35
2022-08-04T15:48:22.471Z,4.80
2022-08-04T15:50:58.506Z,4.07
2022-08-04T15:54:03.650Z,4.80
2022-08-04T15:56:26.389Z,3.65
2022-08-04T15:58:55.099Z,3.72
2022-08-04T16:01:22.319Z,2.30
2022-08-04T16:03:59.087Z,3.42
2022-08-04T16:06:28.898Z,13.73
2022-08-04T16:09:02.273Z,10.65
2022-08-04T16:11:31.669Z,6.55
2022-08-04T16:13:59.017Z,4.88
2022-08-04T16:16:49.942Z,7.80
2022-08-04T16:19:41.635Z,2.53
2022-08-04T16:22:13.764Z,3.78
2022-08-04T16:24:43.174Z,4.50
2022-08-04T16:27:12.864Z,2.28
2022-08-04T16:29:45.430Z,3.53
2022-08-04T16:32:16.795Z,8.02
2022-08-04T16:35:04.927Z,2.80
2022-08-04T16:37:38.231Z,4.13
2022-08-04T16:40:38.209Z,2.40
2022-08-04T16:43:17.566Z,4.45
2022-08-04T16:45:56.477Z,3.45
2022-08-04T16:48:34.824Z,2.60
2022-08-04T16:51:09.480Z,2.08
2022-08-04T16:53:52.916Z,4.47
2022-08-04T16:56:33.702Z,2.95
2022-08-04T16:59:10.580Z,4.18
2022-08-04T17:01:46.457Z,2.85
2022-08-04T17:04:14.275Z,2.00
2022-08-04T17:06:43.642Z,2.15
2022-08-04T17:09:17.058Z,1.98
2022-08-04T17:11:46.580Z,4.95
2022-08-04T17:14:13.878Z,4.60
2022-08-04T17:16:43.092Z,2.20
2022-08-04T17:19:23.643Z,2.58
2022-08-04T17:22:02.956Z,2.20
2022-08-04T17:24:38.250Z,3.78
2022-08-04T17:29:54.079Z,1.60
2022-08-04T17:32:22.618Z,1.80
2022-08-04T17:34:55.572Z,2.83
2022-08-04T17:37:39.135Z,4.07
2022-08-04T17:40:18.122Z,3.53
2022-08-04T17:44:02.906Z,3.08
2022-08-04T17:49:19.300Z,7.75
2022-08-04T17:52:06.732Z,2.88
2022-08-04T17:54:40.482Z,6.38
2022-08-04T17:57:21.003Z,3.80
2022-08-04T17:59:59.352Z,3.20
2022-08-04T18:02:34.873Z,3.35
2022-08-04T18:05:11.568Z,2.75
2022-08-04T18:08:37.934Z,7.38
2022-08-04T18:10:51.958Z,3.13
2022-08-04T18:13:27.710Z,3.65
2022-08-04T18:16:06.244Z,3.33
2022-08-04T18:18:41.720Z,4.05
2022-08-04T18:21:16.053Z,8.18
2022-08-04T18:23:50.644Z,4.60
2022-08-04T18:26:18.369Z,8.40
2022-08-04T18:28:50.945Z,10.65
2022-08-04T18:31:17.864Z,4.50
2022-08-04T18:36:37.962Z,3.47
2022-08-04T18:39:12.846Z,5.28
2022-08-04T18:42:02.439Z,8.57
2022-08-04T18:44:49.351Z,4.20
2022-08-04T18:47:23.537Z,3.53
2022-08-04T18:50:59.272Z,5.65
2022-08-04T18:52:45.712Z,4.15
2022-08-04T18:58:07.155Z,5.85
2022-08-04T19:00:35.481Z,3.80
2022-08-04T19:03:02.501Z,6.18
2022-08-04T19:08:33.194Z,19.88
2022-08-04T19:11:16.750Z,17.37
2022-08-04T19:13:54.565Z,22.23
2022-08-04T19:16:24.843Z,16.33
2022-08-04T19:18:51.773Z,18.07
2022-08-04T19:21:19.442Z,30.10
2022-08-04T19:24:10.610Z,8.80
2022-08-04T19:26:55.069Z,10.97
2022-08-04T19:29:21.982Z,15.33
2022-08-04T19:31:49.233Z,13.37
2022-08-04T19:34:34.693Z,10.80
2022-08-04T19:37:02.039Z,18.67
2022-08-04T19:39:31.622Z,13.13
2022-08-04T19:42:06.176Z,16.23
2022-08-04T19:44:33.836Z,14.23
2022-08-04T19:47:02.382Z,6.10
2022-08-04T19:50:03.815Z,5.43
2022-08-04T19:52:35.740Z,20.73
2022-08-04T19:55:10.377Z,12.07
2022-08-04T19:57:44.721Z,7.50
2022-08-04T20:00:15.248Z,11.93
2022-08-04T20:02:42.331Z,18.03
2022-08-04T20:05:09.728Z,7.80
2022-08-04T20:07:36.919Z,9.40
2022-08-04T20:10:06.907Z,7.23
2022-08-04T20:12:34.821Z,5.40
2022-08-04T20:18:07.862Z,7.73
2022-08-04T20:20:43.578Z,12.97
2022-08-04T20:23:10.728Z,10.93
2022-08-04T20:25:38.930Z,9.80
2022-08-04T20:28:36.536Z,9.90
2022-08-04T20:30:57.793Z,10.60
2022-08-04T20:33:24.713Z,12.07
2022-08-04T20:36:05.012Z,7.57
2022-08-04T20:38:33.405Z,8.70
2022-08-04T20:41:01.854Z,8.17
2022-08-04T20:43:31.219Z,14.50
2022-08-04T20:45:59.332Z,9.57
2022-08-04T20:48:33.652Z,10.33
2022-08-04T20:51:00.907Z,10.40
2022-08-04T20:53:32.467Z,11.80
2022-08-04T20:56:18.911Z,7.37
2022-08-04T20:58:46.319Z,7.73
2022-08-04T21:01:14.624Z,7.53
2022-08-04T21:04:01.017Z,8.57
2022-08-04T21:06:28.083Z,10.50
2022-08-04T21:08:57.183Z,9.40
2022-08-04T21:11:24.445Z,10.33
2022-08-04T21:14:00.361Z,17.53
2022-08-04T21:16:54.138Z,8.20
2022-08-04T21:19:14.273Z,9.97
2022-08-04T21:21:42.378Z,7.80
2022-08-04T21:24:09.993Z,7.30
2022-08-04T21:26:42.643Z,13.63
2022-08-04T21:29:10.169Z,8.17
2022-08-04T21:31:50.076Z,10.10
2022-08-04T21:34:37.874Z,7.40
2022-08-04T21:37:05.077Z,12.17
2022-08-04T21:39:32.652Z,10.00
2022-08-04T21:44:46.678Z,15.50
2022-08-04T21:50:02.227Z,11.10
2022-08-04T21:52:29.838Z,9.67
2022-08-04T21:54:57.650Z,8.80
2022-08-04T21:57:25.172Z,10.23
2022-08-04T21:59:52.738Z,13.67
2022-08-04T22:02:19.801Z,12.27
2022-08-04T22:04:48.492Z,10.40
2022-08-04T22:07:16.416Z,14.30
2022-08-04T22:10:00.068Z,10.20
2022-08-04T22:12:27.383Z,9.70
2022-08-04T22:14:59.449Z,13.43
2022-08-04T22:17:35.180Z,12.70
2022-08-04T22:20:04.417Z,21.07
2022-08-04T22:22:36.104Z,12.40
2022-08-04T22:25:13.355Z,8.37
2022-08-04T22:28:00.868Z,16.70
2022-08-04T22:30:32.830Z,13.03
2022-08-04T22:33:00.585Z,10.50
2022-08-04T22:35:42.975Z,20.47
2022-08-04T22:38:24.365Z,10.53
2022-08-04T22:41:02.560Z,10.00
2022-08-04T22:43:33.330Z,7.60
2022-08-04T22:46:05.015Z,17.30
2022-08-04T22:48:37.500Z,18.43
2022-08-04T22:51:07.252Z,11.23
2022-08-04T22:53:35.939Z,12.40
2022-08-04T22:56:10.241Z,17.63
2022-08-04T22:58:51.269Z,12.17
2022-08-04T23:01:18.632Z,14.33
2022-08-04T23:03:55.282Z,19.67
2022-08-04T23:06:25.396Z,12.10
2022-08-04T23:08:52.872Z,15.80
2022-08-04T23:11:20.406Z,14.53
2022-08-04T23:13:49.150Z,11.13
2022-08-04T23:16:17.123Z,12.83
2022-08-04T23:18:45.202Z,10.00
2022-08-04T23:21:15.408Z,11.70
2022-08-04T23:23:45.709Z,9.40
2022-08-04T23:26:27.946Z,15.37
2022-08-04T23:28:57.253Z,9.90
2022-08-04T23:31:25.169Z,11.13
2022-08-04T23:34:08.422Z,9.17
2022-08-04T23:36:35.482Z,11.70
2022-08-04T23:39:06.203Z,8.93
2022-08-04T23:41:53.915Z,12.10
2022-08-04T23:44:24.798Z,11.03
2022-08-04T23:47:01.328Z,14.73
2022-08-04T23:49:43.336Z,17.23
2022-08-04T23:52:28.251Z,11.63
2022-08-04T23:55:01.018Z,8.50
2022-08-04T23:57:31.448Z,14.13
